Big Bear Station Historical Data
Daily Summary for January 3, 2019 Units:  English    Metric   Both
Next Day »
Daily Weekly Monthly Yearly Custom
  High: Low: Average:
Temperature: 47.7 °F 15.8 °F 27.6 °F
Dew Point: 20.1 °F 13.0 °F 16.1 °F
Humidity: 90% 28% 66%
Wind Speed: 3.7mph 0.0mph 0.2mph
Wind Gust: -999.0mph - -
Wind- - West
Pressure: 23.60 in 23.51 in -
Precipitation: 0.04 in    
Historical Graphs
 
 
Tabular Data for January 3, 2019
Time Temperature Dew Point Pressure Wind Wind Speed Wind Gust Humidity Rainfall Rate (Hourly)
00:03 20.3 °F 13.0 °F 23.57 in Calm   -999.0 mph 73% 0.00 in
00:18 19.8 °F 13.8 °F 23.58 in Calm   -999.0 mph 77% 0.00 in
00:33 19.4 °F 13.7 °F 23.58 in Calm   -999.0 mph 78% 0.00 in
00:48 19.6 °F 14.1 °F 23.58 in Calm   -999.0 mph 79% 0.00 in
01:04 19.0 °F 13.8 °F 23.58 in Calm   -999.0 mph 80% 0.00 in
01:19 19.0 °F 13.6 °F 23.58 in Calm   -999.0 mph 79% 0.00 in
01:34 18.9 °F 13.5 °F 23.58 in Calm   -999.0 mph 79% 0.00 in
01:49 18.7 °F 13.8 °F 23.58 in Calm   -999.0 mph 81% 0.00 in
02:04 18.3 °F 14.0 °F 23.58 in Calm   -999.0 mph 83% 0.00 in
02:20 18.1 °F 14.1 °F 23.58 in Calm   -999.0 mph 84% 0.00 in
02:35 18.0 °F 13.4 °F 23.58 in Calm   -999.0 mph 82% 0.00 in
02:50 17.6 °F 13.3 °F 23.57 in Calm   -999.0 mph 83% 0.00 in
03:05 17.4 °F 13.4 °F 23.57 in Calm   -999.0 mph 84% 0.00 in
03:20 17.2 °F 13.5 °F 23.56 in Calm   -999.0 mph 85% 0.00 in
03:36 17.2 °F 13.7 °F 23.56 in Calm   -999.0 mph 86% 0.00 in
03:51 17.6 °F 14.4 °F 23.57 in Calm   -999.0 mph 87% 0.00 in
04:06 17.6 °F 14.7 °F 23.56 in Calm   -999.0 mph 88% 0.00 in
04:21 16.7 °F 13.5 °F 23.56 in Calm   -999.0 mph 87% 0.00 in
04:36 16.7 °F 13.5 °F 23.56 in Calm   -999.0 mph 87% 0.00 in
04:52 17.1 °F 13.9 °F 23.56 in Calm   -999.0 mph 87% 0.00 in
05:07 16.5 °F 13.6 °F 23.56 in Calm   -999.0 mph 88% 0.00 in
05:22 16.7 °F 13.8 °F 23.56 in Calm   -999.0 mph 88% 0.00 in
05:37 16.9 °F 14.2 °F 23.57 in Calm   -999.0 mph 89% 0.00 in
05:52 16.3 °F 13.6 °F 23.58 in Calm   -999.0 mph 89% 0.00 in
06:08 16.2 °F 13.5 °F 23.58 in Calm   -999.0 mph 89% 0.00 in
06:23 16.3 °F 13.6 °F 23.58 in Calm   -999.0 mph 89% 0.00 in
06:38 16.0 °F 13.1 °F 23.57 in Calm   -999.0 mph 88% 0.00 in
06:53 15.8 °F 13.1 °F 23.57 in Calm   -999.0 mph 89% 0.00 in
07:09 15.8 °F 13.4 °F 23.58 in Calm   -999.0 mph 90% 0.00 in
07:24 16.0 °F 13.6 °F 23.58 in Calm   -999.0 mph 90% 0.00 in
07:39 16.5 °F 14.1 °F 23.59 in Calm   -999.0 mph 90% 0.00 in
07:54 16.9 °F 14.5 °F 23.59 in Calm   -999.0 mph 90% 0.00 in
08:09 17.6 °F 15.2 °F 23.59 in Calm   -999.0 mph 90% 0.00 in
08:25 17.4 °F 14.2 °F 23.59 in Calm   -999.0 mph 87% 0.00 in
08:40 19.6 °F 15.8 °F 23.60 in Calm   -999.0 mph 85% 0.00 in
08:55 19.2 °F 15.7 °F 23.60 in Calm   -999.0 mph 86% 0.00 in
09:10 20.5 °F 16.2 °F 23.60 in Calm   -999.0 mph 83% 0.00 in
09:25 22.5 °F 18.1 °F 23.59 in Calm   -999.0 mph 83% 0.00 in
09:41 25.0 °F 18.8 °F 23.59 in Calm   -999.0 mph 77% 0.00 in
09:56 25.3 °F 17.2 °F 23.59 in Calm   -999.0 mph 71% 0.00 in
10:11 29.8 °F 17.6 °F 23.58 in Calm   -999.0 mph 60% 0.00 in
10:26 32.0 °F 16.8 °F 23.58 in Calm   -999.0 mph 53% 0.00 in
10:41 39.2 °F 14.5 °F 23.57 in Calm   -999.0 mph 36% 0.00 in
10:57 38.8 °F 15.3 °F 23.57 in Calm   -999.0 mph 38% 0.00 in
11:12 45.0 °F 15.4 °F 23.56 in Calm   -999.0 mph 30% 0.00 in
11:27 46.0 °F 16.3 °F 23.55 in Calm   -999.0 mph 30% 0.00 in
11:43 46.8 °F 15.4 °F 23.54 in Calm   -999.0 mph 28% 0.00 in
11:58 46.9 °F 17.1 °F 23.54 in WNW 2.2 mph -999.0 mph 30% 0.00 in
12:13 47.7 °F 17.8 °F 23.53 in WSW 1.1 mph -999.0 mph 30% 0.00 in
12:28 46.6 °F 17.6 °F 23.53 in South 1.1 mph -999.0 mph 31% 0.00 in
12:43 46.6 °F 17.6 °F 23.52 in Calm   -999.0 mph 31% 0.00 in
12:59 47.7 °F 17.8 °F 23.52 in SW 1.1 mph -999.0 mph 30% 0.00 in
13:14 46.8 °F 17.0 °F 23.51 in Calm   -999.0 mph 30% 0.00 in
13:29 46.2 °F 17.9 °F 23.51 in NNW 3.7 mph -999.0 mph 32% 0.00 in
13:45 46.0 °F 18.5 °F 23.51 in NW 3.2 mph -999.0 mph 33% 0.00 in
14:00 45.9 °F 18.4 °F 23.51 in WSW 2.7 mph -999.0 mph 33% 0.00 in
14:15 45.9 °F 19.1 °F 23.51 in NNW 1.1 mph -999.0 mph 34% 0.00 in
14:30 45.5 °F 18.7 °F 23.51 in Calm   -999.0 mph 34% 0.00 in
14:46 45.1 °F 19.1 °F 23.51 in Calm   -999.0 mph 35% 0.00 in
15:01 44.8 °F 18.1 °F 23.51 in Calm   -999.0 mph 34% 0.00 in
15:16 44.6 °F 17.9 °F 23.51 in Calm   -999.0 mph 34% 0.00 in
15:31 43.7 °F 17.1 °F 23.51 in Calm   -999.0 mph 34% 0.00 in
15:47 42.4 °F 17.3 °F 23.51 in Calm   -999.0 mph 36% 0.00 in
16:02 41.2 °F 17.5 °F 23.51 in Calm   -999.0 mph 38% 0.00 in
16:18 40.3 °F 20.1 °F 23.51 in Calm   -999.0 mph 44% 0.00 in
16:33 39.0 °F 19.4 °F 23.52 in Calm   -999.0 mph 45% 0.00 in
16:48 37.2 °F 18.8 °F 23.51 in Calm   -999.0 mph 47% 0.00 in
17:03 35.8 °F 19.9 °F 23.52 in Calm   -999.0 mph 52% 0.00 in
17:18 34.5 °F 20.0 °F 23.52 in Calm   -999.0 mph 55% 0.00 in
17:34 33.1 °F 17.8 °F 23.53 in Calm   -999.0 mph 53% 0.00 in
17:49 32.0 °F 18.9 °F 23.53 in Calm   -999.0 mph 58% 0.00 in
18:04 30.9 °F 17.0 °F 23.53 in Calm   -999.0 mph 56% 0.00 in
18:19 29.7 °F 17.5 °F 23.54 in Calm   -999.0 mph 60% 0.00 in
18:34 28.9 °F 18.2 °F 23.54 in Calm   -999.0 mph 64% 0.00 in
18:50 28.2 °F 17.6 °F 23.54 in Calm   -999.0 mph 64% 0.00 in
19:05 27.5 °F 17.6 °F 23.54 in Calm   -999.0 mph 66% 0.00 in
19:20 27.1 °F 17.2 °F 23.54 in Calm   -999.0 mph 66% 0.00 in
19:35 26.1 °F 16.6 °F 23.54 in Calm   -999.0 mph 67% 0.00 in
19:50 25.9 °F 17.1 °F 23.54 in Calm   -999.0 mph 69% 0.00 in
20:06 25.5 °F 16.1 °F 23.55 in Calm   -999.0 mph 67% 0.00 in
20:21 24.8 °F 16.7 °F 23.55 in Calm   -999.0 mph 71% 0.00 in
20:36 24.4 °F 16.7 °F 23.55 in Calm   -999.0 mph 72% 0.00 in
20:51 23.9 °F 16.5 °F 23.55 in Calm   -999.0 mph 73% 0.00 in
21:07 23.7 °F 16.6 °F 23.55 in Calm   -999.0 mph 74% 0.00 in
21:22 23.5 °F 16.4 °F 23.55 in Calm   -999.0 mph 74% 0.00 in
21:37 23.2 °F 16.8 °F 23.55 in Calm   -999.0 mph 76% 0.00 in
21:52 23.4 °F 17.6 °F 23.54 in Calm   -999.0 mph 78% 0.00 in
22:07 22.6 °F 16.8 °F 23.54 in Calm   -999.0 mph 78% 0.00 in
22:23 22.6 °F 17.9 °F 23.54 in Calm   -999.0 mph 82% 0.00 in
22:38 22.3 °F 17.4 °F 23.54 in Calm   -999.0 mph 81% 0.00 in
22:53 21.7 °F 16.5 °F 23.54 in Calm   -999.0 mph 80% 0.00 in
23:08 22.1 °F 16.9 °F 23.53 in Calm   -999.0 mph 80% 0.00 in
23:23 21.9 °F 16.4 °F 23.53 in Calm   -999.0 mph 79% 0.00 in
23:39 21.9 °F 16.7 °F 23.53 in Calm   -999.0 mph 80% 0.00 in
23:54 21.2 °F 17.1 °F 23.53 in Calm   -999.0 mph 84% 0.00 in
Big Bear CA Weather